Aruana, Brazil
Current Conditions -  °F | °C
As of 3:00 PM on Monday 24 Nov 2014 (Local Time) from SBAN Reporting Station
Broken Clouds Broken Clouds  
Wind Chill: 81°   Ceiling: 10000
Heat Index: 82°   Visibility: 6mi
Dew Point: 64°   Wind: 7mph
Humidity: 58%   Direction: 310°NW
Pressure: 30.06"   Gusts: NA
Location:  14.92°S, 51.08°W
Report Text: SBAN 241700Z 31006KT 9999 SCT025 FEW035TCU BKN100 27/18 Q1018
Loading
Personal Weather Stations






























Interactive Weather Map New forecast layout! Learn more

10-Day Weather Forecast

Advertisements
Track Severe Weather on mobile